TAF LFJL
LFJL 081749Z 0818/0918 21007KT 9999 FEW020 SCT030 PROB40 TEMPO 0818/0824 BKN014 BECMG 0900/0903 OVC008 PROB40 TEMPO 0903/0909 3500 BR OVC003 BECMG 0911/0914 BKN015=
METAR LFJL
LFJL 082200Z AUTO 21008KT CAVOK M00/M01 Q1003 TEMPO BKN014=
LFJL 082130Z AUTO 18008KT CAVOK 01/00 Q1003 TEMPO BKN014=
LFJL 082100Z AUTO 20009KT CAVOK 01/00 Q1003 TEMPO BKN014=
LFJL 082030Z AUTO 19007KT 9999 FEW023 SCT240 01/00 Q1003 TEMPO BKN014=
LFJL 082000Z AUTO 20006KT 9999 BKN021 BKN240 01/01 Q1002 TEMPO BKN014=
WC LFJL
WS LFJL
WV LFJL